METAR UND TAF INFORMATION
LOWW 240320Z 35004KT CAVOK 10/07 Q1015 NOSIG

 FLUGHAFENKARTE

 RUNWAY INFORMATION
Runway 11 Runway length 11483 ft Runway width 148 ft
Runway elevation 575 ft Runway displaced threshold 0 ft Runway heading 116
Runway 29 Runway length 11483 ft Runway width 148 ft
Runway elevation 600 ft Runway displaced threshold 0 ft Runway heading 296
Runway 16 Runway length 11811 ft Runway width 148 ft
Runway elevation 597 ft Runway displaced threshold 2953 ft Runway heading 164
Runway 34 Runway length 11811 ft Runway width 148 ft
Runway elevation 586 ft Runway displaced threshold 0 ft Runway heading 344

 AIRPORT FREQUENCIES
Type APP Name WIEN RADAR Frequency 128.2 MHZ
Type ATIS Name ATIS Frequency 121.725 MHZ
Type CLD Name WIEN CLNC Frequency 122.125 MHZ
Type DIR Name DIRECTOR Frequency 119.8 MHZ
Type GND Name WIEN GND Frequency 121.6 MHZ
Type INFO Name INFO Frequency 118.525 MHZ
Type RMP Name VIENNA ICE Frequency 131.625 MHZ
Type TWR Name WIEN TWR Frequency 119.4 MHZ

 AIRPORT NEAR NAVIGATION AIDS
Type NDB Name Bruck Frequency 408 KHZ
Type VOR-DME Name Fischamend Frequency 110400 KHZ
Type VOR-DME Name Sollenau Frequency 115500 KHZ
Type NDB Name Steinhof Frequency 293 KHZ
Type VOR-DME Name Wagram Frequency 112200 KHZ
Type NDB Name Schwechat Frequency 303 KHZ